Time;durP1;ratioP1;P1;durP2;ratioP2;P2;SDS_P1;SDS_P2;PMS_P1;PMS_P2;Temp;Humidity;BMP_temperature;BMP_pressure;BME280_temperature;BME280_humidity;BME280_pressure;Samples;Min_cycle;Max_cycle;Signal;HPM_P1;HPM_P2
2021/12/10 00:00:11;;;;;;;51.63;30.35;;;4.90;99.90;;;;;;5134398;27;20039;-81
2021/12/10 00:02:38;;;;;;;45.67;28.15;;;4.90;99.90;;;;;;5153769;27;20452;-80
2021/12/10 00:05:07;;;;;;;44.25;28.88;;;4.90;99.90;;;;;;5134608;27;20135;-80
2021/12/10 00:07:33;;;;;;;45.38;28.48;;;4.90;99.90;;;;;;5153106;27;20112;-77
2021/12/10 00:10:04;;;;;;;42.30;27.45;;;4.90;99.90;;;;;;5135021;27;20045;-78
2021/12/10 00:12:37;;;;;;;43.90;25.70;;;4.90;99.90;;;;;;5152896;27;20050;-80
2021/12/10 00:15:06;;;;;;;39.55;25.90;;;5.00;99.90;;;;;;5153249;27;20047;-80
2021/12/10 00:17:31;;;;;;;43.30;26.02;;;4.90;99.90;;;;;;5152868;27;20046;-81
2021/12/10 00:19:59;;;;;;;36.53;24.67;;;4.90;99.90;;;;;;5153054;27;20049;-81
2021/12/10 00:22:41;;;;;;;37.50;25.10;;;4.90;99.90;;;;;;5156744;27;20054;-80
2021/12/10 00:25:18;;;;;;;39.15;24.77;;;4.90;99.90;;;;;;5156533;27;20045;-78
2021/12/10 00:27:45;;;;;;;36.55;23.77;;;4.90;99.90;;;;;;5153649;27;20099;-79
2021/12/10 00:30:17;;;;;;;37.33;23.77;;;4.90;99.90;;;;;;5137479;27;20534;-76
2021/12/10 00:32:48;;;;;;;40.30;24.45;;;4.90;99.90;;;;;;5138579;27;20062;-80
2021/12/10 00:35:21;;;;;;;36.13;23.60;;;4.90;99.90;;;;;;5156206;27;20046;-80
2021/12/10 00:37:47;;;;;;;33.85;24.35;;;4.90;99.90;;;;;;5138162;27;20047;-80
2021/12/10 00:40:15;;;;;;;37.63;23.10;;;4.90;99.90;;;;;;5156114;27;20042;-75
2021/12/10 00:42:41;;;;;;;35.85;22.50;;;5.00;99.90;;;;;;5156728;27;20050;-79
2021/12/10 00:45:10;;;;;;;31.95;22.88;;;4.90;99.90;;;;;;5156591;27;20042;-80
2021/12/10 00:47:36;;;;;;;31.20;23.05;;;4.90;99.90;;;;;;5155918;27;20050;-80
2021/12/10 00:50:06;;;;;;;34.10;22.98;;;4.90;99.90;;;;;;5156346;27;20039;-81
2021/12/10 00:52:32;;;;;;;34.30;22.33;;;4.90;99.90;;;;;;5156215;27;20125;-80
2021/12/10 00:54:58;;;;;;;31.55;23.35;;;4.90;99.90;;;;;;5156272;27;20491;-81
2021/12/10 00:57:23;;;;;;;30.25;21.50;;;4.90;99.90;;;;;;5154614;27;20047;-78
2021/12/10 00:59:50;;;;;;;32.20;22.00;;;4.90;99.90;;;;;;5155817;27;20055;-81
2021/12/10 01:02:24;;;;;;;31.65;22.63;;;4.90;99.90;;;;;;5137839;27;20042;-80
2021/12/10 01:04:54;;;;;;;33.42;21.05;;;4.90;99.90;;;;;;5155868;27;20118;-81
2021/12/10 01:07:23;;;;;;;30.15;20.40;;;4.90;99.90;;;;;;5155831;27;20050;-81
2021/12/10 01:09:53;;;;;;;28.92;20.13;;;4.90;99.90;;;;;;5132732;27;20068;-81
2021/12/10 01:12:30;;;;;;;27.65;20.15;;;4.80;99.90;;;;;;5155790;27;20081;-78
2021/12/10 01:28:41;;;;;;;26.75;18.45;;;4.80;99.90;;;;;;5154597;27;20070;-79
2021/12/10 01:31:07;;;;;;;30.15;20.02;;;4.80;99.90;;;;;;5116467;28;20422;-78
2021/12/10 01:33:33;;;;;;;28.13;18.85;;;4.80;99.90;;;;;;5135014;27;20107;-79
2021/12/10 01:36:00;;;;;;;25.95;17.25;;;4.80;99.90;;;;;;5135141;27;20054;-81
2021/12/10 01:38:27;;;;;;;23.17;17.27;;;4.80;99.90;;;;;;5115771;27;20043;-77
2021/12/10 01:40:56;;;;;;;29.95;18.42;;;4.70;99.90;;;;;;5136668;27;20122;-81
2021/12/10 01:43:23;;;;;;;26.48;17.25;;;4.70;99.90;;;;;;5154824;27;20054;-78
2021/12/10 01:46:01;;;;;;;27.05;18.10;;;4.70;99.90;;;;;;5155235;27;20085;-78
2021/12/10 01:48:36;;;;;;;29.73;18.48;;;4.70;99.90;;;;;;5136888;27;20050;-79
2021/12/10 01:51:03;;;;;;;29.67;17.90;;;4.70;99.90;;;;;;5153893;27;20073;-81
2021/12/10 01:53:33;;;;;;;29.85;17.23;;;4.70;99.90;;;;;;5154932;27;20050;-79
2021/12/10 01:56:02;;;;;;;22.88;17.45;;;4.70;99.90;;;;;;5154810;27;20039;-78
2021/12/10 01:58:29;;;;;;;26.00;17.88;;;4.70;99.90;;;;;;5154505;27;20042;-81
2021/12/10 02:01:09;;;;;;;22.50;17.00;;;4.70;99.90;;;;;;5154769;27;20067;-81
2021/12/10 02:03:36;;;;;;;26.52;17.52;;;4.70;99.90;;;;;;5136284;27;20050;-80
2021/12/10 02:06:04;;;;;;;26.30;17.40;;;4.70;99.90;;;;;;5119557;27;20057;-79
2021/12/10 02:08:30;;;;;;;26.33;17.42;;;4.70;99.90;;;;;;5154012;27;20038;-80
2021/12/10 02:10:56;;;;;;;26.10;16.98;;;4.70;99.90;;;;;;5154574;27;20046;-80
2021/12/10 02:13:21;;;;;;;28.58;16.92;;;4.60;99.90;;;;;;5154399;27;20042;-74
2021/12/10 02:15:47;;;;;;;24.67;17.05;;;4.60;99.90;;;;;;5153992;27;20070;-79
2021/12/10 02:18:13;;;;;;;25.83;17.73;;;4.50;99.90;;;;;;5154244;27;20035;-80
2021/12/10 02:21:12;;;;;;;27.83;17.88;;;4.50;99.90;;;;;;5154028;27;20043;-80
2021/12/10 02:23:46;;;;;;;30.88;18.83;;;4.40;99.90;;;;;;5150728;27;20045;-80
2021/12/10 02:26:14;;;;;;;28.80;18.40;;;4.40;99.90;;;;;;5154959;27;20049;-80
2021/12/10 02:28:41;;;;;;;34.60;20.98;;;4.40;99.90;;;;;;5153284;27;20099;-80
2021/12/10 02:31:08;;;;;;;29.77;20.42;;;4.40;99.90;;;;;;5154078;27;20039;-80
2021/12/10 02:33:35;;;;;;;31.38;20.63;;;4.40;99.90;;;;;;5153378;27;20099;-80
2021/12/10 02:36:01;;;;;;;33.33;20.95;;;4.50;99.90;;;;;;5154728;27;20395;-80
2021/12/10 02:38:27;;;;;;;34.38;22.15;;;4.50;99.90;;;;;;5152777;27;20070;-76
2021/12/10 02:40:54;;;;;;;33.63;22.75;;;4.50;99.90;;;;;;5135666;27;20558;-78
2021/12/10 02:43:23;;;;;;;36.45;23.73;;;4.50;99.90;;;;;;5153875;27;20074;-80
2021/12/10 02:45:53;;;;;;;34.25;23.20;;;4.50;99.90;;;;;;5153489;27;20051;-80
2021/12/10 02:48:20;;;;;;;32.30;23.60;;;4.50;99.90;;;;;;5135376;27;20035;-80
2021/12/10 02:50:46;;;;;;;32.53;22.75;;;4.50;99.90;;;;;;5153182;27;20058;-79
2021/12/10 02:53:15;;;;;;;34.45;23.45;;;4.40;99.90;;;;;;5135520;27;20793;-79
2021/12/10 02:55:42;;;;;;;33.05;23.48;;;4.40;99.90;;;;;;5153353;27;20526;-80
2021/12/10 02:58:11;;;;;;;32.72;24.10;;;4.30;99.90;;;;;;5153564;27;20459;-80
2021/12/10 03:00:47;;;;;;;35.58;24.95;;;4.20;99.90;;;;;;5152291;27;20039;-80
2021/12/10 03:03:13;;;;;;;34.88;24.25;;;4.10;99.90;;;;;;5153857;27;20053;-80
2021/12/10 03:05:39;;;;;;;36.83;24.75;;;4.00;99.90;;;;;;5153741;27;20043;-80
2021/12/10 03:08:05;;;;;;;35.28;24.73;;;4.00;99.90;;;;;;5153345;27;20038;-78
2021/12/10 03:10:32;;;;;;;37.22;25.38;;;3.90;99.90;;;;;;5151119;27;20407;-75
2021/12/10 03:12:58;;;;;;;36.53;25.00;;;3.90;99.90;;;;;;5153646;27;20055;-78
2021/12/10 03:15:25;;;;;;;38.47;27.73;;;3.90;99.90;;;;;;5153826;27;20047;-80
2021/12/10 03:17:52;;;;;;;39.38;26.48;;;3.90;99.90;;;;;;5153423;27;20057;-79
2021/12/10 03:20:21;;;;;;;36.08;25.85;;;4.00;99.90;;;;;;5152717;27;20074;-80
2021/12/10 03:22:48;;;;;;;33.10;25.45;;;3.90;99.90;;;;;;5153136;27;20047;-80
2021/12/10 03:25:16;;;;;;;40.60;26.00;;;4.00;99.90;;;;;;5153231;27;20099;-79
2021/12/10 03:27:42;;;;;;;32.20;24.42;;;4.10;99.90;;;;;;5134350;27;20407;-79
2021/12/10 03:30:13;;;;;;;34.60;24.83;;;4.00;99.90;;;;;;5153300;27;20081;-80
2021/12/10 03:32:40;;;;;;;34.33;23.75;;;4.10;99.90;;;;;;5153083;27;20043;-80
2021/12/10 03:35:16;;;;;;;31.90;23.52;;;4.10;99.90;;;;;;5153338;27;20487;-80
2021/12/10 03:37:45;;;;;;;31.27;23.13;;;4.10;99.90;;;;;;5133589;27;20053;-79
2021/12/10 03:40:13;;;;;;;30.85;23.52;;;4.10;99.90;;;;;;5153211;27;20082;-79
2021/12/10 03:42:39;;;;;;;33.65;22.25;;;4.10;99.90;;;;;;5153189;27;20043;-79
2021/12/10 03:45:07;;;;;;;30.63;22.92;;;4.00;99.90;;;;;;5152893;27;20094;-80
2021/12/10 03:47:33;;;;;;;32.28;21.52;;;4.00;99.90;;;;;;5135496;27;20042;-74
2021/12/10 03:49:59;;;;;;;30.55;22.35;;;3.90;99.90;;;;;;5153086;27;20046;-80
2021/12/10 03:52:25;;;;;;;27.63;21.95;;;3.90;99.90;;;;;;5153274;27;20061;-80
2021/12/10 03:54:50;;;;;;;24.88;20.95;;;3.80;99.90;;;;;;5152987;27;20479;-79
2021/12/10 03:57:18;;;;;;;27.98;21.67;;;3.80;99.90;;;;;;5157211;27;20050;-80
2021/12/10 03:59:44;;;;;;;28.80;21.85;;;3.70;99.90;;;;;;5137692;27;20043;-80
2021/12/10 04:02:11;;;;;;;28.63;21.77;;;3.60;99.90;;;;;;5156616;27;20442;-79
2021/12/10 04:04:49;;;;;;;28.95;21.35;;;3.60;99.90;;;;;;5156538;27;20559;-74
2021/12/10 04:07:20;;;;;;;27.55;22.10;;;3.60;99.90;;;;;;5157171;27;20042;-77
2021/12/10 04:09:46;;;;;;;28.70;22.67;;;3.50;99.90;;;;;;5156359;27;20118;-79
2021/12/10 04:12:12;;;;;;;29.95;22.83;;;3.50;99.90;;;;;;5155619;27;20126;-79
2021/12/10 04:14:40;;;;;;;28.95;24.33;;;3.50;99.90;;;;;;5137387;27;20103;-76
2021/12/10 04:17:06;;;;;;;30.10;24.23;;;3.40;99.90;;;;;;5157632;27;20055;-79
2021/12/10 04:19:35;;;;;;;30.63;24.90;;;3.40;99.90;;;;;;5156830;27;20116;-79
2021/12/10 04:22:04;;;;;;;29.23;25.35;;;3.40;99.90;;;;;;5138086;27;20049;-79
2021/12/10 04:24:33;;;;;;;30.25;24.33;;;3.40;99.90;;;;;;5121041;27;20043;-78
2021/12/10 04:27:00;;;;;;;29.58;24.50;;;3.30;99.90;;;;;;5155286;27;20113;-79
2021/12/10 04:29:25;;;;;;;33.33;25.55;;;3.30;99.90;;;;;;5138159;27;20082;-79
2021/12/10 04:31:54;;;;;;;31.02;25.25;;;3.40;99.90;;;;;;5137306;27;20420;-79
2021/12/10 04:34:21;;;;;;;31.05;23.67;;;3.30;99.90;;;;;;5138201;27;20078;-77
2021/12/10 04:36:52;;;;;;;29.52;23.40;;;3.30;99.90;;;;;;5156063;27;20119;-78
2021/12/10 04:39:18;;;;;;;27.92;23.17;;;3.30;99.90;;;;;;5156323;27;20042;-79
2021/12/10 04:41:44;;;;;;;27.88;23.27;;;3.20;99.90;;;;;;5137832;27;20074;-78
2021/12/10 04:44:10;;;;;;;28.90;24.17;;;3.10;99.90;;;;;;5155128;27;20132;-79
2021/12/10 04:46:36;;;;;;;29.75;23.75;;;3.10;99.90;;;;;;5156592;27;20113;-79
2021/12/10 04:49:14;;;;;;;29.23;23.10;;;3.00;99.90;;;;;;5156212;27;20444;-79
2021/12/10 04:51:53;;;;;;;28.77;22.65;;;3.00;99.90;;;;;;5156104;27;20125;-74
2021/12/10 04:54:21;;;;;;;27.67;22.48;;;2.90;99.90;;;;;;5155594;27;20046;-78
2021/12/10 04:56:49;;;;;;;25.02;21.80;;;2.90;99.90;;;;;;5153741;27;20421;-79
2021/12/10 04:59:17;;;;;;;24.92;21.27;;;2.90;99.90;;;;;;5155593;27;20039;-79
2021/12/10 05:01:44;;;;;;;26.75;22.10;;;2.80;99.90;;;;;;5155620;27;20045;-74
2021/12/10 05:04:11;;;;;;;28.50;22.85;;;2.90;99.90;;;;;;5156529;27;20448;-79
2021/12/10 05:06:38;;;;;;;24.67;21.20;;;2.70;99.90;;;;;;5155293;27;20529;-79
2021/12/10 05:09:08;;;;;;;24.50;20.88;;;2.70;99.90;;;;;;5155778;27;20102;-79
2021/12/10 05:11:34;;;;;;;24.20;20.88;;;2.70;99.90;;;;;;5137236;27;20133;-79
2021/12/10 05:14:00;;;;;;;22.83;20.30;;;2.60;99.90;;;;;;5155186;27;20458;-79
2021/12/10 05:16:27;;;;;;;24.20;20.77;;;2.60;99.90;;;;;;5137869;27;20121;-79
2021/12/10 05:18:58;;;;;;;25.35;21.02;;;2.60;99.90;;;;;;5136440;27;20047;-79
2021/12/10 05:21:26;;;;;;;25.17;21.08;;;2.50;99.90;;;;;;5155415;27;20069;-79
2021/12/10 05:23:52;;;;;;;24.60;20.92;;;2.50;99.90;;;;;;5155236;27;20504;-79
2021/12/10 05:26:19;;;;;;;24.95;21.85;;;2.40;99.90;;;;;;5155065;27;20050;-78
2021/12/10 05:28:45;;;;;;;24.08;20.75;;;2.40;99.90;;;;;;5155586;27;20049;-75
2021/12/10 05:31:11;;;;;;;25.05;21.33;;;2.30;99.90;;;;;;5154665;27;20046;-79
2021/12/10 05:33:37;;;;;;;25.27;21.60;;;2.40;99.90;;;;;;5155860;27;20066;-79
2021/12/10 05:36:03;;;;;;;24.58;21.05;;;2.30;99.90;;;;;;5154918;27;20038;-79
2021/12/10 05:38:31;;;;;;;23.92;20.90;;;2.40;99.90;;;;;;5155422;27;20043;-79
2021/12/10 05:40:58;;;;;;;24.13;19.75;;;2.30;99.90;;;;;;5154463;27;20043;-79
2021/12/10 05:43:25;;;;;;;23.38;19.75;;;2.40;99.90;;;;;;5154901;27;20084;-79
2021/12/10 05:45:52;;;;;;;23.40;20.17;;;2.30;99.90;;;;;;5154333;27;20486;-79
2021/12/10 05:48:19;;;;;;;24.83;20.38;;;2.30;99.90;;;;;;5155378;27;20392;-79
2021/12/10 05:50:47;;;;;;;25.67;20.58;;;2.20;99.90;;;;;;5155082;27;20074;-79
2021/12/10 05:53:13;;;;;;;23.48;19.77;;;2.30;99.90;;;;;;5154245;27;20047;-79
2021/12/10 05:55:41;;;;;;;23.73;20.38;;;2.20;99.90;;;;;;5154663;27;20050;-79
2021/12/10 05:58:07;;;;;;;23.80;19.48;;;2.20;99.90;;;;;;5153943;27;20087;-79
2021/12/10 06:00:43;;;;;;;23.42;18.92;;;2.20;99.90;;;;;;5154581;27;20114;-79
2021/12/10 06:03:10;;;;;;;22.38;18.85;;;2.20;99.90;;;;;;5135589;27;20621;-79
2021/12/10 06:05:36;;;;;;;25.30;19.42;;;2.30;99.90;;;;;;5155216;27;20070;-78
2021/12/10 06:08:04;;;;;;;21.10;18.80;;;2.20;99.90;;;;;;5153949;27;20533;-79
2021/12/10 06:10:30;;;;;;;22.42;18.75;;;2.10;99.90;;;;;;5153836;27;20399;-78
2021/12/10 06:12:56;;;;;;;22.92;19.50;;;2.10;99.90;;;;;;5134590;27;20398;-79
2021/12/10 06:15:26;;;;;;;24.23;19.52;;;2.10;99.90;;;;;;5154077;27;20066;-79
2021/12/10 06:17:52;;;;;;;25.15;19.45;;;2.00;99.90;;;;;;5153246;27;20125;-74
2021/12/10 06:20:22;;;;;;;24.20;19.77;;;2.00;99.90;;;;;;5154320;27;20609;-79
2021/12/10 06:22:48;;;;;;;24.63;19.83;;;1.90;99.90;;;;;;5154008;27;20087;-79
2021/12/10 06:25:14;;;;;;;26.50;19.52;;;1.90;99.90;;;;;;5153351;27;20050;-79
2021/12/10 06:27:44;;;;;;;23.98;19.88;;;1.90;99.90;;;;;;5153474;27;20035;-79
2021/12/10 06:30:17;;;;;;;23.42;19.33;;;1.90;99.90;;;;;;5153729;27;20047;-78
2021/12/10 06:32:45;;;;;;;23.50;19.23;;;1.80;99.90;;;;;;5152949;27;20458;-80
2021/12/10 06:35:12;;;;;;;22.95;19.50;;;1.80;99.90;;;;;;5154156;27;20042;-80
2021/12/10 06:37:41;;;;;;;23.27;19.83;;;1.80;99.90;;;;;;5153934;27;20034;-79
2021/12/10 06:40:10;;;;;;;22.33;18.35;;;1.80;99.90;;;;;;5135126;27;20575;-78
2021/12/10 06:42:37;;;;;;;21.97;18.70;;;1.80;99.90;;;;;;5152811;27;20035;-79
2021/12/10 06:45:09;;;;;;;22.42;18.65;;;1.90;99.90;;;;;;5153593;27;20043;-79
2021/12/10 06:47:35;;;;;;;22.60;19.35;;;1.80;99.90;;;;;;5153820;27;20483;-78
2021/12/10 06:50:03;;;;;;;24.35;18.42;;;1.80;99.90;;;;;;5134445;27;20054;-79
2021/12/10 06:52:28;;;;;;;21.60;18.40;;;1.70;99.90;;;;;;5154107;27;20098;-80
2021/12/10 06:54:54;;;;;;;20.67;17.08;;;1.70;99.90;;;;;;5153757;27;20050;-75
2021/12/10 06:57:20;;;;;;;19.52;16.83;;;1.70;99.90;;;;;;5153414;27;20038;-78
2021/12/10 06:59:46;;;;;;;19.88;17.08;;;1.70;99.90;;;;;;5152875;27;20488;-80
2021/12/10 07:02:12;;;;;;;20.45;16.77;;;1.70;99.90;;;;;;5152924;27;20446;-78
2021/12/10 07:04:41;;;;;;;20.48;16.75;;;1.70;99.90;;;;;;5153384;27;20045;-80
2021/12/10 07:07:08;;;;;;;21.67;17.60;;;1.70;99.90;;;;;;5134859;27;20532;-80
2021/12/10 07:09:35;;;;;;;20.67;17.10;;;1.70;99.90;;;;;;5153153;27;20038;-81
2021/12/10 07:12:01;;;;;;;18.85;16.90;;;1.70;99.90;;;;;;5152517;27;20511;-79
2021/12/10 07:14:27;;;;;;;21.33;16.55;;;1.70;99.90;;;;;;5153411;27;20054;-80
2021/12/10 07:16:53;;;;;;;21.85;16.98;;;1.70;99.90;;;;;;5153149;27;20122;-79
2021/12/10 07:19:20;;;;;;;19.48;16.70;;;1.70;99.90;;;;;;5153275;27;20151;-79
2021/12/10 07:21:45;;;;;;;20.00;16.23;;;1.70;99.90;;;;;;5152296;27;20503;-81
2021/12/10 07:24:14;;;;;;;19.80;16.58;;;1.60;99.90;;;;;;5152216;27;20057;-81
2021/12/10 07:26:41;;;;;;;19.15;15.55;;;1.60;99.90;;;;;;5154480;27;20093;-79
2021/12/10 07:29:08;;;;;;;20.80;15.73;;;1.60;99.90;;;;;;5136633;27;20502;-80
2021/12/10 07:31:35;;;;;;;20.70;15.77;;;1.60;99.90;;;;;;5158964;27;20387;-80
2021/12/10 07:34:02;;;;;;;19.08;15.48;;;1.60;99.90;;;;;;5157819;27;20398;-80
2021/12/10 07:36:28;;;;;;;19.63;15.77;;;1.60;99.90;;;;;;5158405;27;20061;-80
2021/12/10 07:38:56;;;;;;;18.40;15.35;;;1.60;99.90;;;;;;5157808;27;20050;-79
2021/12/10 07:41:22;;;;;;;18.55;16.48;;;1.50;99.90;;;;;;5157988;27;20042;-80
2021/12/10 07:43:48;;;;;;;19.42;15.73;;;1.50;99.90;;;;;;5158373;27;20038;-80
2021/12/10 07:46:14;;;;;;;19.83;15.50;;;1.50;99.90;;;;;;5157593;27;20428;-80
2021/12/10 07:48:43;;;;;;;20.60;15.68;;;1.40;99.90;;;;;;5157912;27;20038;-80
2021/12/10 07:51:21;;;;;;;18.40;15.07;;;1.50;99.90;;;;;;5156913;27;20134;-79
2021/12/10 07:53:47;;;;;;;19.27;15.57;;;1.40;99.90;;;;;;5156638;27;20039;-78
2021/12/10 07:56:15;;;;;;;18.45;14.90;;;1.40;99.90;;;;;;5138590;27;20049;-79
2021/12/10 07:58:42;;;;;;;18.17;14.85;;;1.40;99.90;;;;;;5138522;27;20057;-79
2021/12/10 08:01:12;;;;;;;20.17;15.10;;;1.40;99.90;;;;;;5156938;27;20059;-78
2021/12/10 08:03:38;;;;;;;19.08;15.50;;;1.40;99.90;;;;;;5138885;27;20050;-79
2021/12/10 08:06:05;;;;;;;17.83;15.20;;;1.40;99.90;;;;;;5138518;27;20103;-75
2021/12/10 08:08:31;;;;;;;16.60;14.35;;;1.40;99.90;;;;;;5157366;27;20074;-79
2021/12/10 08:10:57;;;;;;;18.98;14.60;;;1.40;99.90;;;;;;5157547;27;20086;-79
2021/12/10 08:13:23;;;;;;;18.77;14.70;;;1.40;99.90;;;;;;5117166;27;20046;-79
2021/12/10 08:15:52;;;;;;;18.02;15.18;;;1.40;99.90;;;;;;5128914;27;20043;-79
2021/12/10 08:18:19;;;;;;;18.60;15.05;;;1.40;99.90;;;;;;5148809;27;20039;-79
2021/12/10 08:20:46;;;;;;;16.77;14.18;;;1.40;99.90;;;;;;5148785;27;20368;-79
2021/12/10 08:23:13;;;;;;;18.48;14.60;;;1.50;99.90;;;;;;5125438;27;20103;-79
2021/12/10 08:25:39;;;;;;;18.90;15.70;;;1.50;99.90;;;;;;5146296;27;20122;-79
2021/12/10 08:28:06;;;;;;;18.65;14.70;;;1.50;99.90;;;;;;5140700;27;20114;-74
2021/12/10 08:30:33;;;;;;;18.85;15.20;;;1.60;99.90;;;;;;5156684;27;20051;-75
2021/12/10 08:33:00;;;;;;;19.15;14.98;;;1.50;99.90;;;;;;5156546;27;20122;-77
2021/12/10 08:35:29;;;;;;;19.08;15.48;;;1.70;99.90;;;;;;5137848;27;20047;-77
2021/12/10 08:37:59;;;;;;;16.60;14.80;;;1.70;99.90;;;;;;5133505;27;20050;-77
2021/12/10 08:40:30;;;;;;;17.40;14.77;;;1.70;99.90;;;;;;5155992;27;20042;-77
2021/12/10 08:42:56;;;;;;;18.17;15.55;;;1.80;99.90;;;;;;5156954;27;20050;-77
2021/12/10 08:45:24;;;;;;;19.73;14.85;;;1.80;99.90;;;;;;5156093;27;20092;-78
2021/12/10 08:47:50;;;;;;;18.23;14.93;;;1.80;99.90;;;;;;5156776;27;20039;-77
2021/12/10 08:50:22;;;;;;;17.63;14.48;;;1.90;99.90;;;;;;5136820;27;20058;-76
2021/12/10 08:52:51;;;;;;;17.55;15.10;;;1.90;99.90;;;;;;5137415;27;20428;-78
2021/12/10 08:55:18;;;;;;;18.67;14.95;;;1.90;99.90;;;;;;5155356;27;20043;-77
2021/12/10 09:05:34;;;;;;;19.23;15.48;;;2.20;99.90;;;;;;5123974;27;2012162;-87
2021/12/10 09:08:00;;;;;;;15.82;14.15;;;2.20;99.90;;;;;;5153014;27;20662;-81
2021/12/10 09:10:30;;;;;;;15.93;14.23;;;2.30;99.90;;;;;;5171430;27;20039;-81
2021/12/10 09:12:56;;;;;;;15.75;14.07;;;2.30;99.90;;;;;;5163906;27;20043;-80
2021/12/10 09:15:24;;;;;;;15.63;13.50;;;2.40;99.90;;;;;;5150909;27;20050;-80
2021/12/10 09:17:52;;;;;;;18.92;14.63;;;2.40;99.90;;;;;;5167873;27;20049;-81
2021/12/10 09:57:52;;;;;;;16.10;12.30;;;3.10;99.90;;;;;;5124128;27;20394;-81
2021/12/10 10:00:28;;;;;;;13.32;11.68;;;3.10;99.90;;;;;;5130577;27;20039;-74
2021/12/10 10:02:55;;;;;;;13.57;11.07;;;3.20;99.90;;;;;;5113778;28;20063;-82
2021/12/10 10:05:26;;;;;;;13.65;11.48;;;3.30;99.90;;;;;;5109610;28;20476;-80
2021/12/10 10:07:57;;;;;;;12.30;11.07;;;3.40;99.90;;;;;;5122555;28;20035;-80
2021/12/10 10:10:24;;;;;;;12.55;10.85;;;3.60;99.90;;;;;;5130720;27;20104;-80
2021/12/10 10:12:52;;;;;;;11.35;9.35;;;3.70;99.90;;;;;;5108905;27;20047;-80
2021/12/10 10:15:31;;;;;;;12.85;9.70;;;3.80;99.90;;;;;;5089907;28;20044;-79
2021/12/10 10:17:59;;;;;;;12.70;9.00;;;3.90;99.90;;;;;;5090131;28;20089;-80
2021/12/10 10:20:27;;;;;;;11.45;9.60;;;3.90;99.90;;;;;;5089756;28;20119;-80
2021/12/10 10:22:53;;;;;;;11.40;8.85;;;4.00;99.90;;;;;;5090289;28;20052;-80
2021/12/10 10:25:23;;;;;;;11.15;8.25;;;4.10;99.90;;;;;;5089529;28;20048;-79
2021/12/10 10:27:49;;;;;;;11.65;9.02;;;4.30;99.90;;;;;;5096842;28;20051;-81
2021/12/10 10:30:30;;;;;;;9.82;8.00;;;4.40;99.90;;;;;;5110315;28;20040;-80
2021/12/10 10:33:05;;;;;;;10.13;8.00;;;4.50;99.90;;;;;;5110262;28;20044;-81
2021/12/10 10:35:41;;;;;;;11.18;8.65;;;4.60;99.90;;;;;;5109763;28;20047;-81
2021/12/10 10:38:08;;;;;;;10.13;7.82;;;4.70;99.90;;;;;;5110136;28;20040;-81
2021/12/10 10:40:38;;;;;;;10.52;7.88;;;4.70;99.90;;;;;;5109613;28;20036;-80
2021/12/10 10:43:05;;;;;;;9.82;6.82;;;4.70;99.90;;;;;;5103154;28;20040;-80
2021/12/10 10:45:34;;;;;;;12.23;7.60;;;4.80;99.90;;;;;;5089183;28;20051;-80
2021/12/10 10:48:00;;;;;;;7.57;6.72;;;4.80;99.90;;;;;;5089550;28;20080;-81
2021/12/10 10:50:34;;;;;;;9.88;6.80;;;4.80;99.90;;;;;;5089138;28;20079;-80
2021/12/10 10:53:07;;;;;;;9.35;6.72;;;4.80;99.90;;;;;;5089698;28;20133;-80
2021/12/10 10:56:10;;;;;;;8.70;6.22;;;4.90;99.90;;;;;;5088541;28;20420;-80
2021/12/10 10:58:43;;;;;;;8.82;6.60;;;4.90;99.90;;;;;;5069121;28;20175;-80
2021/12/10 11:01:27;;;;;;;7.63;6.10;;;4.90;99.90;;;;;;5088639;28;20049;-80
2021/12/10 11:04:02;;;;;;;7.10;5.43;;;4.80;99.90;;;;;;5089277;28;20487;-80
2021/12/10 11:06:36;;;;;;;8.15;5.75;;;4.90;99.90;;;;;;5088952;28;20086;-81
2021/12/10 11:09:16;;;;;;;7.88;5.47;;;4.90;99.90;;;;;;5076580;28;20044;-80
2021/12/10 11:11:52;;;;;;;7.40;5.35;;;4.90;99.90;;;;;;5075282;28;20051;-81
2021/12/10 11:14:29;;;;;;;6.28;5.35;;;4.90;99.90;;;;;;5080718;28;20070;-80
2021/12/10 11:17:04;;;;;;;6.03;5.20;;;4.90;99.90;;;;;;5075664;28;20040;-80
2021/12/10 11:19:30;;;;;;;8.00;4.80;;;4.90;99.90;;;;;;5075113;28;20113;-80
2021/12/10 11:22:03;;;;;;;8.60;5.82;;;5.00;99.90;;;;;;5077242;28;20040;-80
2021/12/10 11:24:38;;;;;;;6.68;4.97;;;4.90;99.90;;;;;;5075205;28;20389;-80
2021/12/10 11:27:19;;;;;;;8.50;4.85;;;5.00;99.90;;;;;;5076104;28;20099;-79
2021/12/10 11:30:06;;;;;;;;;;;5.00;99.90;;;;;;5109012;28;20051;-80
2021/12/10 11:32:40;;;;;;;6.28;4.60;;;5.00;99.90;;;;;;5092663;28;19919;-79
2021/12/10 11:35:25;;;;;;;7.50;5.03;;;5.00;99.90;;;;;;5109689;28;20050;-80
2021/12/10 11:37:57;;;;;;;6.18;4.80;;;5.00;99.90;;;;;;5105180;28;20089;-80
2021/12/10 11:40:46;;;;;;;6.72;4.35;;;5.10;99.90;;;;;;5115275;28;20078;-81
2021/12/10 11:46:47;;;;;;;7.50;4.63;;;5.20;99.90;;;;;;5107678;28;20105;-80
2021/12/10 11:49:24;;;;;;;9.00;4.97;;;5.20;99.90;;;;;;5075189;28;20048;-80
2021/12/10 11:52:03;;;;;;;7.15;4.95;;;5.20;99.90;;;;;;5074480;28;20048;-81
2021/12/10 11:54:36;;;;;;;6.25;5.00;;;5.10;99.90;;;;;;5074653;28;20044;-74
2021/12/10 11:57:40;;;;;;;7.40;5.47;;;5.10;99.90;;;;;;5074814;28;20063;-80
2021/12/10 12:00:13;;;;;;;7.28;5.05;;;5.10;99.90;;;;;;5052329;28;20090;-81
2021/12/10 12:03:07;;;;;;;6.90;5.00;;;5.20;99.90;;;;;;5051938;28;20044;-81
2021/12/10 12:05:38;;;;;;;7.45;4.53;;;5.20;99.90;;;;;;5067651;28;20052;-80
2021/12/10 12:08:12;;;;;;;5.55;4.30;;;5.20;99.90;;;;;;5074825;28;20473;-80
2021/12/10 12:10:45;;;;;;;7.60;5.00;;;5.20;99.90;;;;;;5074118;28;20048;-80
2021/12/10 12:16:03;;;;;;;6.78;4.72;;;5.20;99.90;;;;;;5073973;28;20158;-80
2021/12/10 12:18:40;;;;;;;8.50;4.50;;;5.30;99.90;;;;;;5072460;28;20048;-80
2021/12/10 12:21:37;;;;;;;7.28;4.18;;;5.40;99.90;;;;;;5084068;28;20047;-80
2021/12/10 12:27:15;;;;;;;5.13;3.93;;;5.40;99.90;;;;;;5101274;28;20047;-83
2021/12/10 12:30:01;;;;;;;3.92;3.50;;;5.50;99.90;;;;;;5083988;28;20762;-83
2021/12/10 12:32:40;;;;;;;7.07;4.22;;;5.50;99.90;;;;;;5075944;28;20043;-82
2021/12/10 12:35:24;;;;;;;6.07;3.95;;;5.60;99.90;;;;;;5094006;28;20036;-84
2021/12/10 12:37:50;;;;;;;5.82;4.40;;;5.60;99.90;;;;;;5103753;28;20043;-83
2021/12/10 12:40:16;;;;;;;9.07;4.57;;;5.60;99.90;;;;;;5096766;28;20462;-84
2021/12/10 12:42:48;;;;;;;5.68;4.05;;;5.60;99.90;;;;;;5113641;28;20043;-84
2021/12/10 12:45:23;;;;;;;9.25;4.80;;;5.60;99.90;;;;;;5107845;28;20476;-82
2021/12/10 12:47:54;;;;;;;9.95;4.22;;;5.60;99.90;;;;;;5100267;28;20481;-85
2021/12/10 12:50:25;;;;;;;6.88;4.45;;;5.60;99.90;;;;;;5094471;28;20046;-83
2021/12/10 12:52:58;;;;;;;8.30;4.20;;;5.60;99.90;;;;;;5101861;28;20062;-83
2021/12/10 12:55:36;;;;;;;6.57;4.55;;;5.60;99.90;;;;;;5094081;28;20431;-82
2021/12/10 12:58:13;;;;;;;5.22;3.90;;;5.60;99.90;;;;;;5100793;28;20077;-82
2021/12/10 13:01:11;;;;;;;7.55;4.45;;;5.50;99.90;;;;;;5088067;28;20044;-80
2021/12/10 13:03:43;;;;;;;6.43;4.30;;;5.60;99.90;;;;;;5113727;28;20364;-75
2021/12/10 13:06:28;;;;;;;8.57;4.30;;;5.60;99.90;;;;;;5108183;28;20034;-84
2021/12/10 13:08:54;;;;;;;5.03;4.20;;;5.60;99.90;;;;;;5098725;28;20038;-75
2021/12/10 13:11:27;;;;;;;5.78;4.32;;;5.60;99.90;;;;;;5096980;28;20047;-84
2021/12/10 13:14:01;;;;;;;8.30;4.38;;;5.50;99.90;;;;;;5092848;28;20044;-83
2021/12/10 13:16:40;;;;;;;6.80;4.93;;;5.60;99.90;;;;;;5093381;28;20377;-83
2021/12/10 13:19:08;;;;;;;7.55;5.00;;;5.50;99.90;;;;;;5093452;28;20164;-78
2021/12/10 13:21:34;;;;;;;7.53;5.18;;;5.50;99.90;;;;;;5091023;28;20052;-83
2021/12/10 13:24:00;;;;;;;7.80;4.85;;;5.50;99.90;;;;;;5092265;28;20602;-83
2021/12/10 13:26:26;;;;;;;7.30;5.13;;;5.50;99.90;;;;;;5083326;28;20115;-79
2021/12/10 13:28:52;;;;;;;9.50;5.20;;;5.50;99.90;;;;;;5086440;28;20047;-80
2021/12/10 13:31:22;;;;;;;7.68;5.05;;;5.50;99.90;;;;;;5075444;28;20046;-83
2021/12/10 13:33:48;;;;;;;7.70;5.20;;;5.50;99.90;;;;;;5076116;28;20049;-81
2021/12/10 13:36:15;;;;;;;7.65;4.80;;;5.40;99.90;;;;;;5071536;28;20032;-79
2021/12/10 13:38:46;;;;;;;6.43;4.95;;;5.40;99.90;;;;;;5108245;28;20051;-75
2021/12/10 13:41:12;;;;;;;;;;;5.40;99.90;;;;;;5106496;28;20066;-84
2021/12/10 13:43:40;;;;;;;10.07;5.28;;;5.40;99.90;;;;;;5101608;28;20303;-76
2021/12/10 13:46:13;;;;;;;6.90;5.28;;;5.30;99.90;;;;;;5101343;28;20032;-82
2021/12/10 13:48:49;;;;;;;8.10;5.43;;;5.30;99.90;;;;;;5104816;28;20476;-77
2021/12/10 13:51:27;;;;;;;6.88;5.28;;;5.20;99.90;;;;;;5093634;28;20040;-82
2021/12/10 13:54:16;;;;;;;7.72;5.78;;;5.20;99.90;;;;;;5097602;28;20040;-81
2021/12/10 13:56:55;;;;;;;6.53;5.40;;;5.10;99.90;;;;;;5092011;28;20366;-76
2021/12/10 13:59:25;;;;;;;7.72;5.78;;;5.10;99.90;;;;;;5095802;28;20491;-80
2021/12/10 14:01:56;;;;;;;8.00;6.03;;;5.10;99.90;;;;;;5093488;28;20119;-82
2021/12/10 14:04:25;;;;;;;8.70;5.60;;;5.10;99.90;;;;;;5106814;28;20111;-79